Magnolia, Maryland
Current Conditions -  °F | °C
As of 3:45 PM on Sunday 23 Nov 2014 (Local Time) from KMTN Reporting Station
Scattered Clouds Scattered Clouds  
Wind Chill: 50°   Ceiling: Unl
Heat Index: 50°   Visibility: 10mi
Dew Point: 32°   Wind: 0mph
Humidity: 50%   Direction: NA
Pressure: 30.14"   Gusts: NA
Location:  39.4047°N, 76.3248°W
Report Text: KMTN 232045Z 00000KT 10SM SCT150 10/00 A3014
Loading
Personal Weather Stations






























Interactive Weather Map New forecast layout! Learn more

10-Day Weather Forecast

Advertisements
Track Severe Weather on mobile